Time;durP1;ratioP1;P1;durP2;ratioP2;P2;SDS_P1;SDS_P2;PMS_P1;PMS_P2;Temp;Humidity;BMP_temperature;BMP_pressure;BME280_temperature;BME280_humidity;BME280_pressure;Samples;Min_cycle;Max_cycle;Signal;HPM_P1;HPM_P2
2022/12/22 03:25:54;;;;;;;6.60;5.97;;;3.40;99.90;;;;;;4985477;28;20275;-71
2022/12/22 03:28:23;;;;;;;6.10;5.60;;;3.40;99.90;;;;;;4983413;28;20251;-70
2022/12/22 03:30:55;;;;;;;6.35;5.78;;;3.40;99.90;;;;;;4986849;28;20225;-71
2022/12/22 03:33:23;;;;;;;6.60;6.00;;;3.40;99.90;;;;;;4987246;28;20255;-70
2022/12/22 03:35:51;;;;;;;6.25;5.75;;;3.40;99.90;;;;;;4983393;28;20204;-70
2022/12/22 03:38:18;;;;;;;7.43;6.78;;;3.30;99.90;;;;;;4985855;28;20622;-70
2022/12/22 03:40:45;;;;;;;6.53;5.93;;;3.30;99.90;;;;;;4988361;28;20228;-70
2022/12/22 03:51:32;;;;;;;6.60;6.05;;;3.30;99.90;;;;;;4988302;28;20289;-70
2022/12/22 03:53:59;;;;;;;6.93;6.18;;;3.30;99.90;;;;;;4982798;28;20227;-71
2022/12/22 03:56:27;;;;;;;5.45;5.05;;;3.30;99.90;;;;;;4987383;28;20190;-70
2022/12/22 03:58:54;;;;;;;6.38;5.93;;;3.40;99.90;;;;;;4989095;28;20233;-70
2022/12/22 04:01:21;;;;;;;5.47;5.07;;;3.40;99.90;;;;;;4987523;28;20283;-70
2022/12/22 04:03:49;;;;;;;5.50;5.10;;;3.40;99.90;;;;;;4985610;28;20225;-70
2022/12/22 04:06:17;;;;;;;5.72;5.28;;;3.40;99.90;;;;;;4987079;28;20225;-72
2022/12/22 04:08:44;;;;;;;6.10;5.60;;;3.40;99.90;;;;;;4984840;28;20220;-70
2022/12/22 04:13:57;;;;;;;6.05;5.47;;;3.40;99.90;;;;;;4986179;28;20227;-70
2022/12/22 04:16:24;;;;;;;5.80;5.30;;;3.40;99.90;;;;;;4983913;28;20204;-70
2022/12/22 04:18:51;;;;;;;6.57;5.97;;;3.40;99.90;;;;;;4987086;28;20229;-70
2022/12/22 04:21:19;;;;;;;6.20;5.70;;;3.40;99.90;;;;;;4987225;28;20207;-71
2022/12/22 04:23:50;;;;;;;8.70;7.72;;;3.30;99.90;;;;;;4984230;28;20225;-71
2022/12/22 04:26:17;;;;;;;6.90;6.40;;;3.30;99.90;;;;;;4987589;28;20193;-71
2022/12/22 04:28:44;;;;;;;7.70;7.00;;;3.20;99.90;;;;;;4989157;28;20221;-70
2022/12/22 04:31:11;;;;;;;7.95;7.25;;;3.20;99.90;;;;;;4988954;28;20224;-71
2022/12/22 04:33:38;;;;;;;7.90;7.00;;;3.20;99.90;;;;;;4991254;28;20235;-70
2022/12/22 04:36:06;;;;;;;7.18;6.15;;;3.20;99.90;;;;;;4990810;28;20768;-71
2022/12/22 04:38:35;;;;;;;6.90;6.30;;;3.30;99.90;;;;;;4988868;28;20704;-71
2022/12/22 04:41:02;;;;;;;7.03;6.40;;;3.30;99.90;;;;;;4989437;28;20201;-71
2022/12/22 04:43:29;;;;;;;6.05;5.55;;;3.30;99.90;;;;;;4991678;28;20197;-70
2022/12/22 04:45:57;;;;;;;6.65;6.05;;;3.40;99.90;;;;;;4982791;28;20201;-70
2022/12/22 04:48:26;;;;;;;5.90;5.50;;;3.40;99.90;;;;;;4987424;28;20193;-70
2022/12/22 04:50:54;;;;;;;6.90;6.35;;;3.40;99.90;;;;;;4987924;28;20278;-70
2022/12/22 04:53:22;;;;;;;6.68;6.07;;;3.40;99.90;;;;;;4990195;28;20585;-70
2022/12/22 04:55:54;;;;;;;5.72;5.30;;;3.50;99.90;;;;;;4984684;28;20212;-70
2022/12/22 04:58:22;;;;;;;5.90;5.50;;;3.50;99.90;;;;;;4988828;28;20259;-70
2022/12/22 05:00:49;;;;;;;5.97;5.47;;;3.50;99.90;;;;;;4989228;28;20226;-72
2022/12/22 05:03:16;;;;;;;6.38;5.85;;;3.50;99.90;;;;;;4987780;28;20200;-71
2022/12/22 05:05:43;;;;;;;5.53;5.13;;;3.50;99.90;;;;;;4989794;28;20714;-71
2022/12/22 05:08:10;;;;;;;5.53;5.07;;;3.50;99.90;;;;;;4988407;28;20200;-70
2022/12/22 05:10:37;;;;;;;6.40;5.90;;;3.60;99.90;;;;;;4987578;28;20666;-71
2022/12/22 05:13:05;;;;;;;6.00;5.50;;;3.60;99.90;;;;;;4988998;28;20224;-70
2022/12/22 05:15:34;;;;;;;6.53;5.97;;;3.60;99.90;;;;;;4987865;28;20287;-70
2022/12/22 05:18:03;;;;;;;6.18;5.68;;;3.60;99.90;;;;;;4994784;28;20209;-71
2022/12/22 05:20:30;;;;;;;5.95;5.38;;;3.60;99.90;;;;;;4982314;22;20221;-74
2022/12/22 05:22:58;;;;;;;6.78;6.18;;;3.60;99.90;;;;;;4990347;28;20197;-74
2022/12/22 05:25:25;;;;;;;6.53;6.03;;;3.60;99.90;;;;;;4970021;28;20229;-74
2022/12/22 05:27:53;;;;;;;5.25;4.85;;;3.60;99.90;;;;;;4992609;28;20209;-74
2022/12/22 05:30:21;;;;;;;6.05;5.55;;;3.60;99.90;;;;;;4989232;28;20229;-74
2022/12/22 05:32:49;;;;;;;5.78;5.28;;;3.60;99.90;;;;;;4990680;28;20200;-74
2022/12/22 05:35:17;;;;;;;6.93;6.22;;;3.60;99.90;;;;;;4968952;28;20213;-74
2022/12/22 05:37:44;;;;;;;8.15;7.35;;;3.60;99.90;;;;;;4987116;28;20198;-74
2022/12/22 05:40:12;;;;;;;8.50;7.65;;;3.40;99.90;;;;;;4991161;28;20357;-74
2022/12/22 05:42:40;;;;;;;7.20;6.60;;;3.30;99.90;;;;;;4991986;28;20232;-74
2022/12/22 05:45:12;;;;;;;6.85;6.25;;;3.30;99.90;;;;;;4989860;28;20231;-74
2022/12/22 05:47:41;;;;;;;6.03;5.55;;;3.30;99.90;;;;;;4973794;28;20746;-74
2022/12/22 05:50:10;;;;;;;6.32;5.82;;;3.30;99.90;;;;;;4988893;28;20586;-74
2022/12/22 05:52:37;;;;;;;6.05;5.55;;;3.40;99.90;;;;;;4986697;28;20201;-74
2022/12/22 05:55:06;;;;;;;6.18;5.70;;;3.50;99.90;;;;;;4990042;28;20217;-74
2022/12/22 05:57:34;;;;;;;5.95;5.45;;;3.50;99.90;;;;;;4987906;28;20197;-75
2022/12/22 06:00:01;;;;;;;6.60;6.07;;;3.60;99.90;;;;;;4990189;28;20248;-74
2022/12/22 06:02:29;;;;;;;6.25;5.70;;;3.60;99.90;;;;;;4974794;28;20201;-74
2022/12/22 06:04:58;;;;;;;6.35;5.75;;;3.50;99.90;;;;;;4989626;28;20249;-74
2022/12/22 06:07:25;;;;;;;6.57;5.97;;;3.50;99.90;;;;;;4987035;28;20698;-74
2022/12/22 06:09:52;;;;;;;6.40;5.85;;;3.50;99.90;;;;;;4989208;28;20228;-74
2022/12/22 06:12:20;;;;;;;6.95;6.35;;;3.50;99.90;;;;;;4990337;28;20207;-74
2022/12/22 06:14:47;;;;;;;7.63;6.93;;;3.50;99.90;;;;;;4987502;28;20220;-74
2022/12/22 06:17:14;;;;;;;6.38;5.78;;;3.50;99.90;;;;;;4988053;28;20289;-74
2022/12/22 06:19:41;;;;;;;7.10;6.50;;;3.50;99.90;;;;;;4972248;28;20228;-75
2022/12/22 06:22:10;;;;;;;6.80;6.30;;;3.50;99.90;;;;;;4984192;28;20213;-74
2022/12/22 06:24:38;;;;;;;7.20;6.60;;;3.50;99.90;;;;;;4986281;28;20224;-74
2022/12/22 06:27:05;;;;;;;7.28;6.68;;;3.60;99.90;;;;;;4988431;28;20198;-74
2022/12/22 06:29:32;;;;;;;6.97;6.38;;;3.50;99.90;;;;;;4989610;28;20744;-73
2022/12/22 06:32:01;;;;;;;7.40;6.80;;;3.50;99.90;;;;;;4987699;28;20229;-74
2022/12/22 06:34:28;;;;;;;7.95;7.30;;;3.50;99.90;;;;;;4988574;28;20309;-74
2022/12/22 06:36:55;;;;;;;8.18;7.43;;;3.40;99.90;;;;;;4974283;28;20201;-74
2022/12/22 06:39:24;;;;;;;7.30;6.70;;;3.30;99.90;;;;;;4989055;28;20221;-74
2022/12/22 06:44:37;;;;;;;8.02;7.32;;;3.30;99.90;;;;;;4986247;28;20308;-74
2022/12/22 06:47:04;;;;;;;7.70;7.00;;;3.30;99.90;;;;;;4971127;28;20267;-74
2022/12/22 06:49:31;;;;;;;7.05;6.45;;;3.30;99.90;;;;;;4988047;28;20224;-72
2022/12/22 06:51:58;;;;;;;7.00;6.40;;;3.30;99.90;;;;;;4987236;28;20224;-75
2022/12/22 06:54:27;;;;;;;6.50;5.90;;;3.30;99.90;;;;;;4986974;28;20782;-75
2022/12/22 06:56:54;;;;;;;6.82;6.35;;;3.30;99.90;;;;;;4988601;28;20574;-75
2022/12/22 06:59:22;;;;;;;9.27;8.48;;;3.40;99.90;;;;;;4986639;28;20223;-75
2022/12/22 07:01:49;;;;;;;12.02;10.88;;;3.40;99.90;;;;;;4972443;28;20197;-74
2022/12/22 07:04:19;;;;;;;12.60;9.75;;;3.40;99.90;;;;;;4987606;28;20304;-75
2022/12/22 07:06:47;;;;;;;11.18;10.00;;;3.40;99.90;;;;;;4985932;28;20193;-74
2022/12/22 07:09:14;;;;;;;11.13;10.02;;;3.30;99.90;;;;;;4971099;28;20225;-75
2022/12/22 07:11:43;;;;;;;10.50;9.20;;;3.30;99.90;;;;;;4986154;28;20251;-74
2022/12/22 07:14:11;;;;;;;10.80;9.80;;;3.30;99.90;;;;;;4987019;28;20228;-75
2022/12/22 07:16:39;;;;;;;8.57;7.78;;;3.30;99.90;;;;;;4988920;28;20208;-75
2022/12/22 07:19:06;;;;;;;8.52;7.75;;;3.30;99.90;;;;;;4970841;28;20702;-75
2022/12/22 07:21:34;;;;;;;7.40;6.70;;;3.40;99.90;;;;;;4988550;28;21470;-75
2022/12/22 07:24:01;;;;;;;8.05;7.30;;;3.40;99.90;;;;;;4985291;28;20247;-74
2022/12/22 07:26:29;;;;;;;7.45;6.75;;;3.50;99.90;;;;;;4987068;28;20197;-75
2022/12/22 07:28:58;;;;;;;7.20;6.60;;;3.50;99.90;;;;;;4984293;28;20232;-74
2022/12/22 07:31:26;;;;;;;8.60;7.80;;;3.50;99.90;;;;;;4987949;28;20220;-74
2022/12/22 07:33:53;;;;;;;8.77;8.02;;;3.50;99.90;;;;;;4987387;28;20232;-75
2022/12/22 07:36:21;;;;;;;9.55;8.40;;;3.50;99.90;;;;;;4987208;28;20236;-75
2022/12/22 07:38:50;;;;;;;8.77;7.97;;;3.50;99.90;;;;;;4984478;28;20228;-75
2022/12/22 07:44:06;;;;;;;8.20;7.40;;;3.40;99.90;;;;;;4988805;28;20219;-74
2022/12/22 07:46:37;;;;;;;8.68;7.85;;;3.50;99.90;;;;;;4984107;28;20742;-74
2022/12/22 07:51:50;;;;;;;7.63;7.03;;;3.60;99.90;;;;;;4989801;28;20248;-73
2022/12/22 07:54:17;;;;;;;7.78;6.85;;;3.60;99.90;;;;;;4987855;28;20701;-73
2022/12/22 07:56:46;;;;;;;8.73;7.93;;;3.80;99.90;;;;;;4988557;28;20720;-74
2022/12/22 07:59:15;;;;;;;8.40;7.70;;;3.80;99.90;;;;;;4987035;28;20221;-74
2022/12/22 08:01:44;;;;;;;8.10;7.40;;;3.80;99.90;;;;;;4986396;28;20217;-74
2022/12/22 08:04:12;;;;;;;8.63;7.82;;;3.80;99.90;;;;;;4988701;28;20713;-74
2022/12/22 08:06:39;;;;;;;8.55;7.85;;;3.80;99.90;;;;;;4982668;28;20205;-74
2022/12/22 08:09:08;;;;;;;7.90;7.20;;;3.80;99.90;;;;;;4971525;28;20232;-75
2022/12/22 08:11:35;;;;;;;10.82;8.52;;;3.70;99.90;;;;;;4987704;28;20229;-73
2022/12/22 08:14:02;;;;;;;9.65;8.70;;;4.20;99.90;;;;;;4979281;28;20264;-74
2022/12/22 08:16:31;;;;;;;10.45;9.23;;;5.40;99.90;;;;;;4985305;28;20193;-73
2022/12/22 08:18:58;;;;;;;10.63;9.48;;;6.30;99.90;;;;;;4987635;28;20217;-73
2022/12/22 08:21:26;;;;;;;10.07;8.75;;;6.70;99.90;;;;;;4969718;28;20228;-73
2022/12/22 08:23:54;;;;;;;9.40;8.52;;;6.90;99.90;;;;;;4984038;28;20216;-75
2022/12/22 08:26:26;;;;;;;8.88;7.93;;;6.80;99.90;;;;;;4984911;28;20201;-75
2022/12/22 08:28:57;;;;;;;9.80;7.90;;;6.40;99.90;;;;;;4984316;28;20212;-75
2022/12/22 08:31:27;;;;;;;8.90;8.05;;;5.90;99.90;;;;;;4969956;28;20221;-76
2022/12/22 08:33:57;;;;;;;11.32;10.23;;;5.40;99.90;;;;;;4987970;28;20236;-75
2022/12/22 08:36:24;;;;;;;11.43;10.32;;;5.10;99.90;;;;;;4982393;28;20204;-75
2022/12/22 08:38:52;;;;;;;13.68;11.60;;;4.80;99.90;;;;;;4984355;28;20233;-74
2022/12/22 08:41:48;;;;;;;12.35;11.10;;;4.60;99.90;;;;;;4986254;28;20862;-75
2022/12/22 08:44:09;;;;;;;14.13;12.63;;;4.50;99.90;;;;;;4980564;28;20315;-76
2022/12/22 08:46:36;;;;;;;13.20;10.95;;;4.40;99.90;;;;;;4982171;28;20202;-75
2022/12/22 08:49:07;;;;;;;11.40;10.20;;;4.30;99.90;;;;;;4966134;28;20219;-76
2022/12/22 08:51:36;;;;;;;10.82;9.75;;;4.30;99.90;;;;;;4966343;28;20279;-74
2022/12/22 08:54:03;;;;;;;10.48;9.48;;;4.30;99.90;;;;;;4965443;28;20213;-75
2022/12/22 08:56:31;;;;;;;9.93;8.93;;;4.30;99.90;;;;;;4984945;28;20209;-73
2022/12/22 08:59:00;;;;;;;8.88;8.07;;;4.30;99.90;;;;;;4967132;28;20592;-73
2022/12/22 09:01:27;;;;;;;9.00;8.20;;;4.30;99.90;;;;;;4981489;28;20220;-72
2022/12/22 09:03:55;;;;;;;8.63;7.82;;;4.30;99.90;;;;;;4981086;28;20774;-72
2022/12/22 09:06:25;;;;;;;7.95;7.25;;;4.20;99.90;;;;;;4984970;28;20263;-72
2022/12/22 09:08:54;;;;;;;8.82;7.93;;;4.20;99.90;;;;;;4984613;28;20729;-69
2022/12/22 09:11:22;;;;;;;9.77;8.30;;;4.10;99.90;;;;;;4985130;28;20229;-71
2022/12/22 09:13:52;;;;;;;9.38;8.40;;;4.20;99.90;;;;;;4969723;28;20225;-73
2022/12/22 09:16:21;;;;;;;8.25;7.45;;;4.20;99.90;;;;;;4970931;28;21288;-68
2022/12/22 09:18:48;;;;;;;7.85;7.15;;;4.20;99.90;;;;;;4967596;28;20234;-71
2022/12/22 09:21:16;;;;;;;8.68;7.88;;;4.20;99.90;;;;;;4959936;28;20699;-71
2022/12/22 09:23:46;;;;;;;8.52;7.72;;;4.30;99.90;;;;;;4981741;28;20229;-71
2022/12/22 09:26:15;;;;;;;8.75;7.88;;;4.30;99.90;;;;;;4968454;28;20209;-72
2022/12/22 09:28:43;;;;;;;7.68;6.97;;;4.40;99.90;;;;;;4969087;28;20279;-72
2022/12/22 09:31:11;;;;;;;8.23;7.53;;;4.40;99.90;;;;;;4984136;28;20221;-71
2022/12/22 09:33:38;;;;;;;7.78;6.97;;;4.50;99.90;;;;;;4965217;28;20228;-70
2022/12/22 09:36:07;;;;;;;8.00;7.30;;;4.50;99.90;;;;;;4968085;28;20228;-68
2022/12/22 09:38:34;;;;;;;8.45;7.78;;;4.60;99.90;;;;;;4981491;28;20350;-68
2022/12/22 09:41:09;;;;;;;9.48;8.55;;;4.70;99.90;;;;;;4984088;28;20279;-69
2022/12/22 09:43:37;;;;;;;9.25;8.00;;;4.80;99.90;;;;;;4967360;28;20231;-68
2022/12/22 09:46:05;;;;;;;8.48;7.68;;;4.90;99.90;;;;;;4971027;28;20205;-68
2022/12/22 09:48:37;;;;;;;7.60;6.90;;;4.90;99.90;;;;;;4981340;28;20224;-68
2022/12/22 09:51:04;;;;;;;8.68;7.88;;;5.00;99.90;;;;;;4981793;28;20761;-68
2022/12/22 09:53:32;;;;;;;10.20;9.23;;;4.90;99.90;;;;;;4983865;28;20296;-67
2022/12/22 09:55:59;;;;;;;10.70;9.60;;;4.80;99.90;;;;;;4984434;28;20647;-67
2022/12/22 09:58:31;;;;;;;10.30;9.32;;;4.80;99.90;;;;;;4985206;28;20193;-68
2022/12/22 10:01:08;;;;;;;10.23;9.23;;;4.80;99.90;;;;;;4980378;28;20231;-68
2022/12/22 10:03:45;;;;;;;11.32;10.13;;;4.80;99.90;;;;;;4985988;28;20594;-69
2022/12/22 10:06:17;;;;;;;10.98;9.85;;;4.90;99.90;;;;;;4955135;28;20193;-68
2022/12/22 10:08:45;;;;;;;12.30;10.98;;;4.90;99.90;;;;;;4986202;28;20225;-68
2022/12/22 10:11:14;;;;;;;10.98;9.27;;;4.90;99.90;;;;;;4969953;28;20229;-67
2022/12/22 10:13:45;;;;;;;10.68;9.68;;;4.90;99.90;;;;;;4982979;28;20224;-67
2022/12/22 10:16:20;;;;;;;10.48;9.35;;;4.90;99.90;;;;;;4986604;28;20220;-68
2022/12/22 10:18:59;;;;;;;11.20;10.02;;;5.00;99.90;;;;;;4978362;28;20233;-68
2022/12/22 10:21:27;;;;;;;12.55;11.25;;;5.00;99.90;;;;;;4983499;28;20717;-68
2022/12/22 10:23:54;;;;;;;10.30;9.35;;;5.00;99.90;;;;;;4979197;28;20715;-67
2022/12/22 10:26:24;;;;;;;14.40;11.88;;;5.00;99.90;;;;;;4985673;28;20621;-68
2022/12/22 10:28:58;;;;;;;13.23;11.82;;;5.10;99.90;;;;;;4977742;28;20235;-68
2022/12/22 10:31:27;;;;;;;13.45;11.68;;;5.20;99.90;;;;;;4984603;28;20851;-68
2022/12/22 10:33:57;;;;;;;15.23;12.32;;;5.30;99.90;;;;;;4968384;28;20239;-68
2022/12/22 10:36:27;;;;;;;12.07;10.90;;;5.50;99.90;;;;;;4986579;28;20212;-68
2022/12/22 10:39:04;;;;;;;12.05;10.85;;;5.50;99.90;;;;;;4966434;28;20225;-68
2022/12/22 10:41:35;;;;;;;12.40;10.45;;;5.50;99.90;;;;;;4983948;28;20208;-68
2022/12/22 10:44:07;;;;;;;12.88;11.57;;;5.50;99.90;;;;;;4983205;28;20226;-68
2022/12/22 10:46:38;;;;;;;10.98;9.90;;;5.50;99.90;;;;;;4983787;28;20193;-68
2022/12/22 10:49:20;;;;;;;10.98;9.80;;;5.50;99.90;;;;;;4985686;28;20217;-68
2022/12/22 10:51:50;;;;;;;13.63;12.18;;;5.50;99.90;;;;;;4981758;28;20275;-67
2022/12/22 10:54:30;;;;;;;12.65;11.40;;;5.60;99.90;;;;;;4979092;28;20861;-68
2022/12/22 10:57:07;;;;;;;12.55;10.52;;;5.60;99.90;;;;;;4983762;28;20228;-68
2022/12/22 10:59:48;;;;;;;14.10;11.20;;;5.70;99.90;;;;;;4963361;28;20302;-68
2022/12/22 11:02:27;;;;;;;11.35;9.82;;;5.80;99.90;;;;;;4982744;28;20239;-67
2022/12/22 11:05:02;;;;;;;12.48;11.27;;;5.90;99.90;;;;;;4981465;28;20228;-68
2022/12/22 11:07:32;;;;;;;12.85;11.55;;;5.90;99.90;;;;;;4982305;28;20200;-68
2022/12/22 11:10:00;;;;;;;11.93;10.73;;;6.00;99.90;;;;;;4981705;28;20221;-68
2022/12/22 11:12:36;;;;;;;10.95;9.93;;;6.00;99.90;;;;;;4983921;28;20216;-68
2022/12/22 11:15:15;;;;;;;11.38;10.20;;;6.20;99.90;;;;;;4966631;28;20244;-68
2022/12/22 11:17:54;;;;;;;13.30;11.20;;;6.50;99.90;;;;;;4980370;28;20209;-68
2022/12/22 11:20:47;;;;;;;13.07;11.13;;;6.90;99.90;;;;;;4980570;28;20221;-68
2022/12/22 11:23:24;;;;;;;12.20;10.75;;;7.30;99.90;;;;;;4965436;28;20201;-70
2022/12/22 11:26:04;;;;;;;10.75;9.75;;;7.30;99.90;;;;;;4983253;28;20225;-68
2022/12/22 11:28:43;;;;;;;27.60;21.25;;;7.70;99.90;;;;;;4981340;28;20204;-71
2022/12/22 11:31:23;;;;;;;22.70;16.88;;;8.20;99.90;;;;;;4965555;28;20558;-69
2022/12/22 11:36:03;;;;;;;16.73;14.25;;;9.40;99.90;;;;;;5079816;27;20278;-76
2022/12/22 11:38:47;;;;;;;15.98;13.77;;;9.80;99.90;;;;;;5091843;28;20655;-75
2022/12/22 11:41:39;;;;;;;16.65;13.43;;;10.20;99.90;;;;;;5058548;28;20232;-75
2022/12/22 11:44:47;;;;;;;14.88;12.70;;;10.60;99.90;;;;;;5048850;28;20646;-74
2022/12/22 11:47:24;;;;;;;12.80;11.50;;;10.70;99.90;;;;;;5023807;28;20195;-76
2022/12/22 11:50:13;;;;;;;12.57;11.27;;;11.00;99.90;;;;;;5034740;28;20230;-75
2022/12/22 11:52:54;;;;;;;11.90;10.63;;;11.20;99.90;;;;;;5038508;28;20622;-75
2022/12/22 11:55:29;;;;;;;12.05;10.77;;;11.50;99.90;;;;;;5038013;28;20234;-75
2022/12/22 11:58:08;;;;;;;11.07;9.95;;;11.50;99.90;;;;;;5038675;28;20717;-74
2022/12/22 12:00:43;;;;;;;11.45;10.00;;;11.40;99.90;;;;;;5041234;28;20222;-75
2022/12/22 12:03:47;;;;;;;12.57;11.25;;;11.40;99.90;;;;;;5038540;28;20190;-75
2022/12/22 12:06:26;;;;;;;13.95;12.07;;;11.40;99.90;;;;;;5024875;28;20595;-76
2022/12/22 12:09:18;;;;;;;11.63;10.45;;;11.60;99.90;;;;;;5043221;28;20591;-75
2022/12/22 12:11:52;;;;;;;12.30;11.10;;;11.70;99.90;;;;;;5053550;28;20206;-77
2022/12/22 12:14:28;;;;;;;11.55;10.45;;;11.60;99.90;;;;;;5045730;28;20632;-74
2022/12/22 12:16:59;;;;;;;11.98;10.70;;;11.80;99.90;;;;;;5046268;28;20202;-75
2022/12/22 12:19:44;;;;;;;11.90;10.68;;;11.80;99.90;;;;;;5044901;28;20211;-75
2022/12/22 12:22:24;;;;;;;13.68;12.27;;;11.80;99.90;;;;;;5041737;28;20677;-76
2022/12/22 12:25:00;;;;;;;11.60;10.40;;;11.90;99.90;;;;;;5049807;28;20226;-75
2022/12/22 12:27:43;;;;;;;11.85;10.65;;;12.00;99.90;;;;;;5049170;28;20428;-76
2022/12/22 12:30:18;;;;;;;12.25;10.93;;;11.90;99.90;;;;;;5046928;28;20214;-76
2022/12/22 12:34:43;;;;;;;10.88;9.77;;;11.50;99.90;;;;;;5089974;27;20294;-75
2022/12/22 12:37:18;;;;;;;12.50;10.75;;;11.50;99.90;;;;;;5098447;28;20197;-74
2022/12/22 12:39:56;;;;;;;12.57;11.35;;;11.50;99.90;;;;;;5096896;27;20367;-76
2022/12/22 12:42:31;;;;;;;12.65;11.35;;;11.30;99.90;;;;;;5102779;28;20201;-76
2022/12/22 12:44:59;;;;;;;11.60;10.30;;;11.00;99.90;;;;;;5084115;28;20943;-75
2022/12/22 12:47:28;;;;;;;18.45;16.58;;;11.00;99.90;;;;;;5083930;28;20197;-75
2022/12/22 12:50:18;;;;;;;15.40;13.90;;;11.20;99.90;;;;;;5080552;28;20227;-76
2022/12/22 12:53:15;;;;;;;16.17;11.98;;;11.30;99.90;;;;;;5095306;28;20222;-76
2022/12/22 12:56:04;;;;;;;11.93;10.73;;;11.30;99.90;;;;;;5092310;28;20644;-76
2022/12/22 12:59:01;;;;;;;12.38;11.15;;;11.30;99.90;;;;;;5092651;28;21054;-75
2022/12/22 13:01:57;;;;;;;11.00;9.90;;;11.30;99.90;;;;;;5094842;28;20217;-76
2022/12/22 13:05:11;;;;;;;11.20;9.65;;;11.40;99.90;;;;;;5086785;28;20904;-76
2022/12/22 13:08:09;;;;;;;11.60;10.40;;;11.40;99.90;;;;;;5072052;28;20586;-76
2022/12/22 13:10:39;;;;;;;11.82;9.98;;;11.40;99.90;;;;;;5100938;28;20268;-75
2022/12/22 13:13:06;;;;;;;11.80;10.57;;;11.20;99.90;;;;;;5100129;28;20227;-76
2022/12/22 13:15:35;;;;;;;13.88;10.93;;;11.10;99.90;;;;;;5098665;28;20228;-74
2022/12/22 13:18:04;;;;;;;10.82;9.57;;;10.90;99.90;;;;;;5093375;28;20206;-76
2022/12/22 13:20:34;;;;;;;11.73;10.52;;;10.60;99.90;;;;;;5089071;28;20221;-77
2022/12/22 13:23:03;;;;;;;12.02;10.82;;;10.10;99.90;;;;;;5104177;28;20201;-75
2022/12/22 13:25:41;;;;;;;11.18;10.02;;;9.60;99.90;;;;;;5094852;28;20231;-79
2022/12/22 13:28:14;;;;;;;11.50;10.43;;;9.50;99.90;;;;;;5097196;28;20188;-74
2022/12/22 13:30:47;;;;;;;12.82;11.48;;;9.40;99.90;;;;;;5079268;28;20221;-74
2022/12/22 13:33:17;;;;;;;12.55;11.23;;;9.50;99.90;;;;;;5090617;28;20241;-73
2022/12/22 13:35:47;;;;;;;11.93;10.55;;;9.80;99.90;;;;;;5099375;28;20225;-73
2022/12/22 13:38:29;;;;;;;11.48;9.65;;;9.90;99.90;;;;;;5099384;28;20196;-73
2022/12/22 13:40:59;;;;;;;11.00;9.95;;;9.80;99.90;;;;;;5099751;28;20224;-74
2022/12/22 13:43:28;;;;;;;12.80;11.50;;;9.60;99.90;;;;;;5095633;27;20284;-73
2022/12/22 13:45:57;;;;;;;12.82;10.27;;;9.40;99.90;;;;;;5083903;28;20190;-74
2022/12/22 13:48:29;;;;;;;16.42;11.80;;;9.20;99.90;;;;;;5082913;28;20285;-73
2022/12/22 13:50:59;;;;;;;11.93;10.73;;;9.40;99.90;;;;;;5091563;28;20220;-73
2022/12/22 13:53:32;;;;;;;11.73;10.30;;;9.70;99.90;;;;;;5084691;28;20229;-75
2022/12/22 13:56:01;;;;;;;11.93;10.60;;;9.80;99.90;;;;;;5081691;28;20958;-73
2022/12/22 13:58:30;;;;;;;12.27;10.93;;;9.90;99.90;;;;;;5085697;28;20198;-74
2022/12/22 14:01:02;;;;;;;13.73;12.32;;;10.00;99.90;;;;;;5092580;28;20239;-74
2022/12/22 14:03:29;;;;;;;16.42;12.43;;;10.00;99.90;;;;;;5082001;28;20189;-74
2022/12/22 14:05:56;;;;;;;13.50;12.07;;;10.20;99.90;;;;;;5076374;28;20197;-74
2022/12/22 14:08:24;;;;;;;11.48;10.18;;;10.40;99.90;;;;;;5081260;28;20246;-73
2022/12/22 14:10:53;;;;;;;12.05;10.77;;;10.30;99.90;;;;;;5083564;28;20242;-74
2022/12/22 14:13:28;;;;;;;10.88;9.77;;;10.10;99.90;;;;;;5076975;28;20228;-74
2022/12/22 14:16:01;;;;;;;9.63;8.63;;;9.70;99.90;;;;;;5074265;28;20284;-74
2022/12/22 14:18:28;;;;;;;10.98;9.05;;;9.30;99.90;;;;;;5081945;28;20255;-75
2022/12/22 14:20:56;;;;;;;15.05;11.13;;;8.90;99.90;;;;;;5082637;28;20214;-74
2022/12/22 14:23:27;;;;;;;18.88;12.93;;;8.50;99.90;;;;;;5081753;28;20251;-74
2022/12/22 14:25:55;;;;;;;34.75;19.85;;;8.20;99.90;;;;;;5080863;28;20721;-73
2022/12/22 14:28:27;;;;;;;30.77;18.70;;;7.90;99.90;;;;;;5078532;28;20852;-75
2022/12/22 14:30:57;;;;;;;55.53;29.40;;;7.70;99.90;;;;;;5092162;28;20210;-74
2022/12/22 14:33:31;;;;;;;65.72;31.65;;;7.50;99.90;;;;;;5081821;28;20209;-74
2022/12/22 14:36:06;;;;;;;45.78;24.38;;;7.30;99.90;;;;;;5078839;28;20203;-73
2022/12/22 14:38:40;;;;;;;36.50;21.92;;;7.20;99.90;;;;;;5080579;28;20250;-74
2022/12/22 14:41:39;;;;;;;25.70;15.98;;;7.10;99.90;;;;;;5081670;28;20267;-74
2022/12/22 14:44:01;;;;;;;18.35;13.30;;;7.00;99.90;;;;;;5081180;28;20267;-74
2022/12/22 14:46:28;;;;;;;17.05;11.93;;;7.00;99.90;;;;;;5079096;28;20200;-74
2022/12/22 14:48:57;;;;;;;14.82;11.75;;;6.90;99.90;;;;;;5085535;28;20232;-74
2022/12/22 14:51:25;;;;;;;13.02;10.93;;;6.80;99.90;;;;;;5084185;28;20220;-74
2022/12/22 14:53:54;;;;;;;14.65;11.88;;;6.80;99.90;;;;;;5083128;28;20224;-73
2022/12/22 14:56:22;;;;;;;15.48;12.07;;;6.70;99.90;;;;;;5077087;28;20395;-74
2022/12/22 14:58:50;;;;;;;13.15;11.77;;;6.70;99.90;;;;;;5095745;28;20297;-75
2022/12/22 15:01:22;;;;;;;12.98;11.65;;;6.70;99.90;;;;;;5082549;28;20229;-75
2022/12/22 15:04:05;;;;;;;14.10;12.35;;;6.70;99.90;;;;;;5085738;28;20676;-74
2022/12/22 15:06:39;;;;;;;20.58;16.25;;;6.60;99.90;;;;;;5081100;28;20189;-74
2022/12/22 15:09:28;;;;;;;21.63;18.20;;;6.60;99.90;;;;;;5085391;28;20230;-75
2022/12/22 15:12:03;;;;;;;22.80;18.25;;;6.50;99.90;;;;;;5086375;28;20193;-73
2022/12/22 15:14:32;;;;;;;39.13;28.75;;;6.50;99.90;;;;;;5084582;28;20240;-75
2022/12/22 15:17:02;;;;;;;63.83;39.72;;;6.50;99.90;;;;;;5085604;28;20200;-75
2022/12/22 15:19:31;;;;;;;39.17;27.73;;;6.40;99.90;;;;;;5082535;28;20865;-75
2022/12/22 15:21:58;;;;;;;35.53;25.30;;;6.40;99.90;;;;;;5079295;28;20208;-74
2022/12/22 15:24:28;;;;;;;41.65;28.38;;;6.30;99.90;;;;;;5090942;28;20201;-74
2022/12/22 15:26:55;;;;;;;37.63;26.58;;;6.20;99.90;;;;;;5082074;28;20727;-73
2022/12/22 15:29:22;;;;;;;30.50;23.02;;;6.10;99.90;;;;;;5084971;28;20220;-74
2022/12/22 15:31:49;;;;;;;23.30;18.25;;;6.10;99.90;;;;;;5080819;28;20194;-74
2022/12/22 15:34:22;;;;;;;18.85;16.17;;;6.00;99.90;;;;;;5076159;28;20604;-74
2022/12/22 15:36:49;;;;;;;14.45;12.90;;;6.00;99.90;;;;;;5079780;28;20651;-74
2022/12/22 15:39:18;;;;;;;11.63;10.38;;;5.90;99.90;;;;;;5077501;28;20209;-74
2022/12/22 15:41:45;;;;;;;11.73;10.52;;;5.80;99.90;;;;;;5072130;28;20190;-75
2022/12/22 15:44:13;;;;;;;10.35;9.35;;;5.70;99.90;;;;;;5073830;28;20214;-73
2022/12/22 15:46:42;;;;;;;9.32;8.43;;;5.60;99.90;;;;;;5078187;28;20209;-75
2022/12/22 15:49:15;;;;;;;9.43;8.52;;;5.50;99.90;;;;;;5073762;28;20221;-75
2022/12/22 15:51:47;;;;;;;8.55;7.35;;;5.50;99.90;;;;;;5075463;28;20614;-74
2022/12/22 15:54:16;;;;;;;6.75;6.13;;;5.40;99.90;;;;;;5079097;28;20222;-74
2022/12/22 15:56:44;;;;;;;6.55;6.05;;;5.30;99.90;;;;;;5076798;28;20659;-74
2022/12/22 15:59:18;;;;;;;9.60;8.65;;;5.30;99.90;;;;;;5072543;28;20247;-75
2022/12/22 16:01:45;;;;;;;8.40;7.60;;;5.30;99.90;;;;;;5068849;28;20653;-75
2022/12/22 16:04:12;;;;;;;8.63;7.82;;;5.20;99.90;;;;;;5064691;28;21318;-75
2022/12/22 16:06:39;;;;;;;7.95;7.25;;;5.20;99.90;;;;;;5059032;28;20664;-74
2022/12/22 16:09:12;;;;;;;7.22;6.63;;;5.20;99.90;;;;;;5058277;28;20244;-74
2022/12/22 16:11:39;;;;;;;6.45;5.85;;;5.10;99.90;;;;;;5063221;28;20222;-74
2022/12/22 16:14:09;;;;;;;6.45;5.85;;;5.10;99.90;;;;;;5069615;28;20221;-75
2022/12/22 16:16:36;;;;;;;6.68;6.07;;;5.00;99.90;;;;;;5074047;28;20197;-75
2022/12/22 16:19:03;;;;;;;6.05;5.55;;;5.00;99.90;;;;;;5089614;28;20197;-73
2022/12/22 16:21:32;;;;;;;6.35;5.85;;;5.00;99.90;;;;;;5083774;28;20225;-74
2022/12/22 16:24:02;;;;;;;5.32;4.82;;;5.00;99.90;;;;;;5076896;28;20365;-75
2022/12/22 16:26:31;;;;;;;5.70;5.25;;;5.00;99.90;;;;;;5078231;28;20208;-74
2022/12/22 16:28:59;;;;;;;6.00;5.50;;;5.00;99.90;;;;;;5079561;28;20274;-75
2022/12/22 16:31:29;;;;;;;5.95;5.35;;;5.00;99.90;;;;;;5076897;28;20246;-74
2022/12/22 16:33:56;;;;;;;6.25;5.75;;;5.00;99.90;;;;;;5075107;28;20574;-75
2022/12/22 16:36:24;;;;;;;6.50;6.00;;;5.00;99.90;;;;;;5079089;28;20565;-73
2022/12/22 16:38:51;;;;;;;6.82;6.30;;;5.00;99.90;;;;;;5079421;28;20224;-75
2022/12/22 16:41:22;;;;;;;5.85;5.35;;;5.00;99.90;;;;;;5082782;28;20996;-74
2022/12/22 16:43:51;;;;;;;6.75;6.25;;;5.00;99.90;;;;;;5077707;28;20221;-74
2022/12/22 16:46:20;;;;;;;6.63;6.13;;;5.00;99.90;;;;;;5075581;28;20205;-76
2022/12/22 16:48:50;;;;;;;6.32;5.72;;;5.00;99.90;;;;;;5074219;28;20213;-76
2022/12/22 16:51:22;;;;;;;5.90;5.40;;;4.90;99.90;;;;;;5072770;28;20259;-75
2022/12/22 16:53:52;;;;;;;6.22;5.72;;;4.90;99.90;;;;;;5071591;28;20872;-76